Informes METAR cercanos


LEVC - Manises, Valencia, ESPAÑA
Distance from station: NNE 72km
Actualización: 24/04/2024 14:30
Despejado
Despejado
 Viento del O
Viento: O 11 km/h
Temperatura: 20°C
Rocío: -5°C
Humedad: 18%
Barómetro: 1016 hPa
Resumen: Despejado
Visibility: Mas de 10 km
2024/04/24 12:30 LEVC 241230Z 26006KT CAVOK 20/M05 Q1016 NOSIG
LEAL - El Altet, Alicante, ESPAÑA
Distance from station: S 70km
Actualización: 24/04/2024 14:30
Despejado
Despejado
 Viento del ESE
Viento: ESE 17 km/h
Temperatura: 17°C
Rocío: 3°C
Humedad: 39%
Barómetro: 1017 hPa
Resumen: Despejado
Visibility: Mas de 10 km
2024/04/24 12:30 LEAL 241230Z 11009KT 070V150 CAVOK 17/03 Q1017 NOSIG
 
LELC - San Javier, Murcia, ESPAÑA
Distance from station: SSO 188km
Actualización: 24/04/2024 14:30
Despejado
Despejado
 Viento del E
Viento: E 15 km/h
Temperatura: 19°C
Rocío: 7°C
Humedad: 46%
Barómetro: 1017 hPa
Resumen: Despejado
Visibility: Mas de 10 km
2024/04/24 12:30 LELC 241230Z 10008KT 050V150 CAVOK 19/07 Q1017 NOSIG
LEAB - Los Llanos, Albacete, ESPAÑA
Distance from station: O 143km
Actualización: 24/04/2024 14:30
Despejado
Despejado
 Viento del NO
Viento: NO 22 km/h
Temperatura: 15°C
Rocío: -9°C
Humedad: 18%
Barómetro: 1018 hPa
Resumen: Despejado
Visibility: Mas de 10 km
2024/04/24 12:30 LEAB 241230Z 32012KT 280V340 CAVOK 15/M09 Q1018 NOSIG